Domov               UVHVVR             MKGP            O straneh              
ZDRAVSTVENO VARSTVO RASTLIN
  MREŽA AGROMET. POSTAJ
 ► PROGNOSTIČNA OBVESTILA
AGROMETEOROLOŠKI PODATKI -
ARSO
OBVLADOVANJE TVEGANJ ZARADI
NEUGODNIH VREMENSKIH RAZMER
  ► NARAVNE NESREČE
  ► SUŠA/MOČA
  ► NAMAKANJE
  ► ŽLED (gozdarstvo)
KARTOGRAFSKI PRIKAZI
SPLETNE POVEZAVE
PROJEKTI IN PUBLIKACIJE

AGROMETEOROLOŠKA MREŽA: VREMENSKE POSTAJE IN FENOLOŠKA OPAZOVANJA

Pregled podatkov za lokacijo Bilje FURS, meteorološka postaja 859083

Pregled senzorjev na lokaciji

ID Ime Zadnja
vrednost
Datum
zadnje
spremembe
Tip
senzorja
3958 Temperatura 2 m ( °C) 21,37 °C 25.6.2017 20:30 50YA
3959 Relativna vlaga 2 m (% RH) 100 % RH 25.6.2017 20:30 50YA
3963 Omočenost lista (U) 0 U 25.6.2017 20:30 A730WET
3964 Padavine 0.2 mm (mm) 0 mm 25.6.2017 20:30 Rain-O-Matic

Pregled podatkov zadnjih 24 ur

Zap.
št.
Datum in čas Bilje FURS
Omočenost
lista
Padavine
0.2
mm
Relativna
vlaga
2
m
Temperatura
2
m
0 25.6.2017 19:30 0 0 100 21,37
1 25.6.2017 19:00 1 0 100 21,45
2 25.6.2017 18:30 3 0 100 21,18
3 25.6.2017 18:00 9 0,2 100 20,74
4 25.6.2017 17:30 10 0 100 20,7
5 25.6.2017 17:00 10 0,8 100 20,7
6 25.6.2017 16:30 10 1,6 99,99 20,84
7 25.6.2017 16:00 10 1,2 99,19 21,14
8 25.6.2017 15:30 10 0,8 98,55 21,63
9 25.6.2017 15:00 2 0,2 94,31 22,24
10 25.6.2017 14:30 0 0 96,1 22,63
11 25.6.2017 14:00 0 0 94,49 23,29
12 25.6.2017 13:30 0 0 98,66 22,85
13 25.6.2017 13:00 0 0 100 21,64
14 25.6.2017 12:30 0 0 100 20,33
15 25.6.2017 12:00 9 0 100 19,25
16 25.6.2017 11:30 10 0,2 100 17,67
17 25.6.2017 11:00 10 1 99,98 17,36
18 25.6.2017 10:30 6 14,6 85 21,65
19 25.6.2017 10:00 0 0 70,65 26
20 25.6.2017 09:30 0 0 75,84 25,2
21 25.6.2017 09:00 0 0 75,31 25,85
22 25.6.2017 08:30 0 0 75,76 26,2
23 25.6.2017 08:00 0 0 80,48 24,9
24 25.6.2017 07:30 0 0 82,64 24,13
25 25.6.2017 07:00 0 0 89,93 22,73
26 25.6.2017 06:30 0 0 90,54 22,24
27 25.6.2017 06:00 0 0 92,81 21,7
28 25.6.2017 05:30 0 0 98,3 20,96
29 25.6.2017 05:00 0 0 98,85 20,42
30 25.6.2017 04:30 0 0 98,17 20,44
31 25.6.2017 04:00 0 0 98,07 20,56
32 25.6.2017 03:30 0 0 98,02 20,59
33 25.6.2017 03:00 0 0 97,15 20,6
34 25.6.2017 02:30 0 0 96,1 20,94
35 25.6.2017 02:00 0 0 94,14 21,42
36 25.6.2017 01:30 0 0 94,21 21,5
37 25.6.2017 01:00 0 0 94,4 21,62
38 25.6.2017 00:30 0 0 95,96 21,41
39 25.6.2017 00:00 0 0 94,68 21,77
40 24.6.2017 23:30 0 0 93,04 22,15
41 24.6.2017 23:00 0 0 92,31 22,51
42 24.6.2017 22:30 0 0 91,84 22,68
43 24.6.2017 22:00 0 0 88,25 23,29
44 24.6.2017 21:30 0 0 85,51 23,91
© 2011 Ministrstvo za kmetijstvo, gozdarstvo in prehrano. Vse pravice pridržane.